sensor_id;sensor_type;location;lat;lon;timestamp;P1;durP1;ratioP1;P2;durP2;ratioP2
73575;SDS011;61859;49.204;8.140;2023-05-23T00:00:40;24.03;;;17.17;;
73575;SDS011;61859;49.204;8.140;2023-05-23T00:03:06;26.87;;;18.27;;
73575;SDS011;61859;49.204;8.140;2023-05-23T00:05:32;27.37;;;18.77;;
73575;SDS011;61859;49.204;8.140;2023-05-23T00:07:59;27.83;;;18.93;;
73575;SDS011;61859;49.204;8.140;2023-05-23T00:10:25;26.27;;;17.90;;
73575;SDS011;61859;49.204;8.140;2023-05-23T00:12:50;26.47;;;17.43;;
73575;SDS011;61859;49.204;8.140;2023-05-23T00:15:17;28.00;;;17.60;;
73575;SDS011;61859;49.204;8.140;2023-05-23T00:17:43;23.37;;;17.03;;
73575;SDS011;61859;49.204;8.140;2023-05-23T00:20:08;24.07;;;17.13;;
73575;SDS011;61859;49.204;8.140;2023-05-23T00:22:36;26.53;;;17.73;;
73575;SDS011;61859;49.204;8.140;2023-05-23T00:25:04;23.90;;;17.07;;
73575;SDS011;61859;49.204;8.140;2023-05-23T00:27:30;24.80;;;17.90;;
73575;SDS011;61859;49.204;8.140;2023-05-23T00:29:56;23.97;;;17.87;;
73575;SDS011;61859;49.204;8.140;2023-05-23T00:32:21;23.67;;;16.90;;
73575;SDS011;61859;49.204;8.140;2023-05-23T00:34:47;25.07;;;17.93;;
73575;SDS011;61859;49.204;8.140;2023-05-23T00:37:12;24.43;;;18.40;;
73575;SDS011;61859;49.204;8.140;2023-05-23T00:39:39;28.23;;;20.27;;
73575;SDS011;61859;49.204;8.140;2023-05-23T00:42:04;29.00;;;18.47;;
73575;SDS011;61859;49.204;8.140;2023-05-23T00:44:30;27.87;;;19.33;;
73575;SDS011;61859;49.204;8.140;2023-05-23T00:46:56;28.10;;;19.70;;
73575;SDS011;61859;49.204;8.140;2023-05-23T00:49:22;25.43;;;19.20;;
73575;SDS011;61859;49.204;8.140;2023-05-23T00:51:48;29.77;;;20.97;;
73575;SDS011;61859;49.204;8.140;2023-05-23T00:54:19;34.60;;;21.43;;
73575;SDS011;61859;49.204;8.140;2023-05-23T00:56:51;31.53;;;21.30;;
73575;SDS011;61859;49.204;8.140;2023-05-23T00:59:17;26.10;;;20.20;;
73575;SDS011;61859;49.204;8.140;2023-05-23T01:01:45;32.50;;;22.53;;
73575;SDS011;61859;49.204;8.140;2023-05-23T01:04:12;32.17;;;21.20;;
73575;SDS011;61859;49.204;8.140;2023-05-23T01:06:38;29.40;;;20.13;;
73575;SDS011;61859;49.204;8.140;2023-05-23T01:09:04;30.40;;;20.30;;
73575;SDS011;61859;49.204;8.140;2023-05-23T01:12:13;28.30;;;19.47;;
73575;SDS011;61859;49.204;8.140;2023-05-23T01:14:23;32.20;;;20.73;;
73575;SDS011;61859;49.204;8.140;2023-05-23T01:16:54;27.07;;;20.40;;
73575;SDS011;61859;49.204;8.140;2023-05-23T01:22:30;25.37;;;19.23;;
73575;SDS011;61859;49.204;8.140;2023-05-23T01:28:06;30.37;;;19.20;;
73575;SDS011;61859;49.204;8.140;2023-05-23T01:30:35;27.90;;;18.57;;
73575;SDS011;61859;49.204;8.140;2023-05-23T01:33:04;27.90;;;19.07;;
73575;SDS011;61859;49.204;8.140;2023-05-23T01:35:32;27.23;;;19.33;;
73575;SDS011;61859;49.204;8.140;2023-05-23T01:37:58;26.93;;;18.63;;
73575;SDS011;61859;49.204;8.140;2023-05-23T01:40:24;30.17;;;19.17;;
73575;SDS011;61859;49.204;8.140;2023-05-23T01:42:51;26.93;;;18.17;;
73575;SDS011;61859;49.204;8.140;2023-05-23T01:45:19;24.50;;;18.70;;
73575;SDS011;61859;49.204;8.140;2023-05-23T01:47:45;27.80;;;19.70;;
73575;SDS011;61859;49.204;8.140;2023-05-23T01:50:13;29.03;;;18.83;;
73575;SDS011;61859;49.204;8.140;2023-05-23T01:52:39;27.20;;;19.27;;
73575;SDS011;61859;49.204;8.140;2023-05-23T01:55:06;29.37;;;19.87;;
73575;SDS011;61859;49.204;8.140;2023-05-23T01:57:34;27.43;;;19.73;;
73575;SDS011;61859;49.204;8.140;2023-05-23T02:00:02;28.93;;;20.10;;
73575;SDS011;61859;49.204;8.140;2023-05-23T02:02:30;25.50;;;19.70;;
73575;SDS011;61859;49.204;8.140;2023-05-23T02:04:59;26.37;;;20.23;;
73575;SDS011;61859;49.204;8.140;2023-05-23T02:07:24;29.53;;;21.40;;
73575;SDS011;61859;49.204;8.140;2023-05-23T02:09:50;31.77;;;21.20;;
73575;SDS011;61859;49.204;8.140;2023-05-23T02:12:16;29.43;;;19.90;;
73575;SDS011;61859;49.204;8.140;2023-05-23T02:14:41;28.47;;;20.90;;
73575;SDS011;61859;49.204;8.140;2023-05-23T02:17:07;26.70;;;19.20;;
73575;SDS011;61859;49.204;8.140;2023-05-23T02:19:36;29.03;;;19.57;;
73575;SDS011;61859;49.204;8.140;2023-05-23T02:22:01;29.03;;;20.47;;
73575;SDS011;61859;49.204;8.140;2023-05-23T02:24:27;27.20;;;19.37;;
73575;SDS011;61859;49.204;8.140;2023-05-23T02:26:53;26.87;;;20.30;;
73575;SDS011;61859;49.204;8.140;2023-05-23T02:29:20;25.37;;;19.43;;
73575;SDS011;61859;49.204;8.140;2023-05-23T02:31:45;26.30;;;19.63;;
73575;SDS011;61859;49.204;8.140;2023-05-23T02:34:11;23.47;;;18.50;;
73575;SDS011;61859;49.204;8.140;2023-05-23T02:36:36;25.70;;;19.00;;
73575;SDS011;61859;49.204;8.140;2023-05-23T02:39:03;27.07;;;18.40;;
73575;SDS011;61859;49.204;8.140;2023-05-23T02:41:29;23.63;;;18.70;;
73575;SDS011;61859;49.204;8.140;2023-05-23T02:43:55;27.87;;;19.07;;
73575;SDS011;61859;49.204;8.140;2023-05-23T02:46:21;26.27;;;18.47;;
73575;SDS011;61859;49.204;8.140;2023-05-23T02:48:46;26.83;;;17.70;;
73575;SDS011;61859;49.204;8.140;2023-05-23T02:51:12;29.30;;;19.80;;
73575;SDS011;61859;49.204;8.140;2023-05-23T02:53:38;24.77;;;17.93;;
73575;SDS011;61859;49.204;8.140;2023-05-23T02:56:03;24.80;;;18.00;;
73575;SDS011;61859;49.204;8.140;2023-05-23T02:58:31;27.60;;;17.77;;
73575;SDS011;61859;49.204;8.140;2023-05-23T03:00:59;23.43;;;17.10;;
73575;SDS011;61859;49.204;8.140;2023-05-23T03:03:31;25.13;;;17.27;;
73575;SDS011;61859;49.204;8.140;2023-05-23T03:06:20;25.00;;;17.40;;
73575;SDS011;61859;49.204;8.140;2023-05-23T03:08:46;26.07;;;18.23;;
73575;SDS011;61859;49.204;8.140;2023-05-23T03:11:12;23.63;;;17.97;;
73575;SDS011;61859;49.204;8.140;2023-05-23T03:13:37;24.13;;;16.87;;
73575;SDS011;61859;49.204;8.140;2023-05-23T03:16:03;24.20;;;19.23;;
73575;SDS011;61859;49.204;8.140;2023-05-23T03:18:29;24.73;;;17.53;;
73575;SDS011;61859;49.204;8.140;2023-05-23T03:20:54;25.60;;;19.07;;
73575;SDS011;61859;49.204;8.140;2023-05-23T03:23:20;24.20;;;17.93;;
73575;SDS011;61859;49.204;8.140;2023-05-23T03:25:45;21.43;;;17.30;;
73575;SDS011;61859;49.204;8.140;2023-05-23T03:28:11;25.17;;;19.17;;
73575;SDS011;61859;49.204;8.140;2023-05-23T03:30:37;23.50;;;17.33;;
73575;SDS011;61859;49.204;8.140;2023-05-23T03:33:02;24.93;;;17.70;;
73575;SDS011;61859;49.204;8.140;2023-05-23T03:35:28;22.63;;;16.50;;
73575;SDS011;61859;49.204;8.140;2023-05-23T03:37:54;25.70;;;17.73;;
73575;SDS011;61859;49.204;8.140;2023-05-23T03:40:19;24.20;;;16.13;;
73575;SDS011;61859;49.204;8.140;2023-05-23T03:42:46;21.30;;;17.20;;
73575;SDS011;61859;49.204;8.140;2023-05-23T03:45:12;23.70;;;18.80;;
73575;SDS011;61859;49.204;8.140;2023-05-23T03:47:38;23.07;;;17.77;;
73575;SDS011;61859;49.204;8.140;2023-05-23T03:50:04;22.37;;;17.80;;
73575;SDS011;61859;49.204;8.140;2023-05-23T03:52:30;26.53;;;17.10;;
73575;SDS011;61859;49.204;8.140;2023-05-23T03:54:55;25.17;;;18.77;;
73575;SDS011;61859;49.204;8.140;2023-05-23T03:57:21;22.90;;;17.93;;
73575;SDS011;61859;49.204;8.140;2023-05-23T03:59:46;24.90;;;18.93;;
73575;SDS011;61859;49.204;8.140;2023-05-23T04:02:12;24.27;;;19.10;;
73575;SDS011;61859;49.204;8.140;2023-05-23T04:04:37;23.80;;;18.93;;
73575;SDS011;61859;49.204;8.140;2023-05-23T04:07:03;31.47;;;19.70;;
73575;SDS011;61859;49.204;8.140;2023-05-23T04:09:29;27.17;;;18.87;;
73575;SDS011;61859;49.204;8.140;2023-05-23T04:11:55;29.27;;;20.40;;
73575;SDS011;61859;49.204;8.140;2023-05-23T04:14:21;24.47;;;19.83;;
73575;SDS011;61859;49.204;8.140;2023-05-23T04:16:48;25.90;;;19.33;;
73575;SDS011;61859;49.204;8.140;2023-05-23T04:19:13;27.83;;;19.73;;
73575;SDS011;61859;49.204;8.140;2023-05-23T04:21:40;23.03;;;19.13;;
73575;SDS011;61859;49.204;8.140;2023-05-23T04:24:05;29.27;;;20.47;;
73575;SDS011;61859;49.204;8.140;2023-05-23T04:26:32;26.40;;;19.37;;
73575;SDS011;61859;49.204;8.140;2023-05-23T04:28:57;27.93;;;20.83;;
73575;SDS011;61859;49.204;8.140;2023-05-23T04:31:23;26.43;;;19.53;;
73575;SDS011;61859;49.204;8.140;2023-05-23T04:33:49;23.93;;;18.10;;
73575;SDS011;61859;49.204;8.140;2023-05-23T04:36:14;26.13;;;19.40;;
73575;SDS011;61859;49.204;8.140;2023-05-23T04:38:40;23.87;;;18.73;;
73575;SDS011;61859;49.204;8.140;2023-05-23T04:41:06;25.43;;;18.60;;
73575;SDS011;61859;49.204;8.140;2023-05-23T04:43:34;25.60;;;19.17;;
73575;SDS011;61859;49.204;8.140;2023-05-23T04:46:01;22.63;;;18.67;;
73575;SDS011;61859;49.204;8.140;2023-05-23T04:48:27;26.73;;;18.67;;
73575;SDS011;61859;49.204;8.140;2023-05-23T04:50:53;26.07;;;19.43;;
73575;SDS011;61859;49.204;8.140;2023-05-23T04:53:20;24.13;;;18.37;;
73575;SDS011;61859;49.204;8.140;2023-05-23T04:55:46;26.93;;;18.90;;
73575;SDS011;61859;49.204;8.140;2023-05-23T04:58:11;27.43;;;19.03;;
73575;SDS011;61859;49.204;8.140;2023-05-23T05:00:37;25.37;;;18.40;;
73575;SDS011;61859;49.204;8.140;2023-05-23T05:03:02;27.40;;;19.73;;
73575;SDS011;61859;49.204;8.140;2023-05-23T05:05:28;26.97;;;20.47;;
73575;SDS011;61859;49.204;8.140;2023-05-23T05:07:54;27.03;;;19.40;;
73575;SDS011;61859;49.204;8.140;2023-05-23T05:10:20;27.93;;;20.90;;
73575;SDS011;61859;49.204;8.140;2023-05-23T05:12:45;32.13;;;22.87;;
73575;SDS011;61859;49.204;8.140;2023-05-23T05:15:13;25.57;;;20.10;;
73575;SDS011;61859;49.204;8.140;2023-05-23T05:17:41;24.57;;;19.07;;
73575;SDS011;61859;49.204;8.140;2023-05-23T05:20:07;26.60;;;20.47;;
73575;SDS011;61859;49.204;8.140;2023-05-23T05:22:34;27.70;;;19.30;;
73575;SDS011;61859;49.204;8.140;2023-05-23T05:25:01;26.50;;;19.50;;
73575;SDS011;61859;49.204;8.140;2023-05-23T05:27:27;25.03;;;19.57;;
73575;SDS011;61859;49.204;8.140;2023-05-23T05:29:53;23.40;;;18.87;;
73575;SDS011;61859;49.204;8.140;2023-05-23T05:32:22;22.43;;;17.13;;
73575;SDS011;61859;49.204;8.140;2023-05-23T05:34:48;19.00;;;16.97;;
73575;SDS011;61859;49.204;8.140;2023-05-23T05:37:14;19.17;;;16.40;;
73575;SDS011;61859;49.204;8.140;2023-05-23T05:39:40;22.48;;;18.00;;
73575;SDS011;61859;49.204;8.140;2023-05-23T05:42:06;19.47;;;17.30;;
73575;SDS011;61859;49.204;8.140;2023-05-23T05:44:31;19.50;;;16.60;;
73575;SDS011;61859;49.204;8.140;2023-05-23T05:46:57;19.53;;;16.60;;
73575;SDS011;61859;49.204;8.140;2023-05-23T05:49:23;21.27;;;15.53;;
73575;SDS011;61859;49.204;8.140;2023-05-23T05:51:48;18.27;;;14.73;;
73575;SDS011;61859;49.204;8.140;2023-05-23T05:54:14;17.00;;;13.87;;
73575;SDS011;61859;49.204;8.140;2023-05-23T05:56:39;14.83;;;13.33;;
73575;SDS011;61859;49.204;8.140;2023-05-23T05:59:06;15.83;;;13.93;;
73575;SDS011;61859;49.204;8.140;2023-05-23T06:01:31;18.73;;;14.33;;
73575;SDS011;61859;49.204;8.140;2023-05-23T06:03:58;13.27;;;11.97;;
73575;SDS011;61859;49.204;8.140;2023-05-23T06:06:24;11.37;;;10.27;;
73575;SDS011;61859;49.204;8.140;2023-05-23T06:08:50;12.10;;;9.90;;
73575;SDS011;61859;49.204;8.140;2023-05-23T06:11:16;10.50;;;9.40;;
73575;SDS011;61859;49.204;8.140;2023-05-23T06:13:41;10.57;;;9.43;;
73575;SDS011;61859;49.204;8.140;2023-05-23T06:16:07;10.50;;;9.10;;
73575;SDS011;61859;49.204;8.140;2023-05-23T06:18:32;13.87;;;9.40;;
73575;SDS011;61859;49.204;8.140;2023-05-23T06:20:58;10.57;;;8.63;;
73575;SDS011;61859;49.204;8.140;2023-05-23T06:23:24;9.30;;;7.70;;
73575;SDS011;61859;49.204;8.140;2023-05-23T06:25:50;10.00;;;7.40;;
73575;SDS011;61859;49.204;8.140;2023-05-23T06:28:15;8.33;;;7.53;;
73575;SDS011;61859;49.204;8.140;2023-05-23T06:30:41;9.00;;;7.10;;
73575;SDS011;61859;49.204;8.140;2023-05-23T06:33:06;15.13;;;7.47;;
73575;SDS011;61859;49.204;8.140;2023-05-23T06:35:32;8.37;;;7.57;;
73575;SDS011;61859;49.204;8.140;2023-05-23T06:37:58;7.73;;;6.93;;
73575;SDS011;61859;49.204;8.140;2023-05-23T06:40:23;8.27;;;6.97;;
73575;SDS011;61859;49.204;8.140;2023-05-23T06:42:49;8.90;;;6.53;;
73575;SDS011;61859;49.204;8.140;2023-05-23T06:45:14;7.87;;;7.07;;
73575;SDS011;61859;49.204;8.140;2023-05-23T06:47:40;7.17;;;6.47;;
73575;SDS011;61859;49.204;8.140;2023-05-23T06:50:08;7.13;;;6.43;;
73575;SDS011;61859;49.204;8.140;2023-05-23T06:52:33;7.30;;;6.37;;
73575;SDS011;61859;49.204;8.140;2023-05-23T06:54:59;6.67;;;5.93;;
73575;SDS011;61859;49.204;8.140;2023-05-23T06:57:24;8.40;;;6.50;;
73575;SDS011;61859;49.204;8.140;2023-05-23T06:59:50;7.67;;;6.50;;
73575;SDS011;61859;49.204;8.140;2023-05-23T07:02:15;7.53;;;6.03;;
73575;SDS011;61859;49.204;8.140;2023-05-23T07:04:41;8.00;;;6.50;;
73575;SDS011;61859;49.204;8.140;2023-05-23T07:07:07;8.60;;;6.10;;
73575;SDS011;61859;49.204;8.140;2023-05-23T07:09:32;10.13;;;6.30;;
73575;SDS011;61859;49.204;8.140;2023-05-23T07:11:58;6.20;;;5.53;;
73575;SDS011;61859;49.204;8.140;2023-05-23T07:14:23;6.60;;;5.53;;
73575;SDS011;61859;49.204;8.140;2023-05-23T07:16:49;6.60;;;5.83;;
73575;SDS011;61859;49.204;8.140;2023-05-23T07:19:14;8.67;;;5.83;;
73575;SDS011;61859;49.204;8.140;2023-05-23T07:21:40;6.03;;;4.90;;
73575;SDS011;61859;49.204;8.140;2023-05-23T07:24:05;6.73;;;5.27;;
73575;SDS011;61859;49.204;8.140;2023-05-23T07:26:31;5.40;;;4.90;;
73575;SDS011;61859;49.204;8.140;2023-05-23T07:28:57;5.43;;;4.73;;
73575;SDS011;61859;49.204;8.140;2023-05-23T07:31:22;7.53;;;5.20;;
73575;SDS011;61859;49.204;8.140;2023-05-23T07:33:48;5.87;;;5.00;;
73575;SDS011;61859;49.204;8.140;2023-05-23T07:36:14;7.77;;;4.90;;
73575;SDS011;61859;49.204;8.140;2023-05-23T07:38:40;6.07;;;4.67;;
73575;SDS011;61859;49.204;8.140;2023-05-23T07:41:05;6.33;;;5.47;;
73575;SDS011;61859;49.204;8.140;2023-05-23T07:43:31;6.70;;;4.80;;
73575;SDS011;61859;49.204;8.140;2023-05-23T07:45:56;6.70;;;5.60;;
73575;SDS011;61859;49.204;8.140;2023-05-23T07:48:22;10.07;;;6.50;;
73575;SDS011;61859;49.204;8.140;2023-05-23T07:50:48;8.10;;;6.03;;
73575;SDS011;61859;49.204;8.140;2023-05-23T07:53:13;8.23;;;6.03;;
73575;SDS011;61859;49.204;8.140;2023-05-23T07:55:39;8.87;;;5.70;;
73575;SDS011;61859;49.204;8.140;2023-05-23T07:58:05;7.47;;;6.00;;
73575;SDS011;61859;49.204;8.140;2023-05-23T08:00:31;6.43;;;5.80;;
73575;SDS011;61859;49.204;8.140;2023-05-23T08:02:56;6.87;;;6.03;;
73575;SDS011;61859;49.204;8.140;2023-05-23T08:05:22;8.57;;;6.30;;
73575;SDS011;61859;49.204;8.140;2023-05-23T08:07:48;6.83;;;5.80;;
73575;SDS011;61859;49.204;8.140;2023-05-23T08:10:13;6.70;;;5.70;;
73575;SDS011;61859;49.204;8.140;2023-05-23T08:12:39;5.93;;;4.87;;
73575;SDS011;61859;49.204;8.140;2023-05-23T08:15:05;5.83;;;5.03;;
73575;SDS011;61859;49.204;8.140;2023-05-23T08:17:31;5.40;;;4.90;;
73575;SDS011;61859;49.204;8.140;2023-05-23T08:19:56;5.40;;;4.90;;
73575;SDS011;61859;49.204;8.140;2023-05-23T08:22:22;5.53;;;4.93;;
73575;SDS011;61859;49.204;8.140;2023-05-23T08:24:47;5.30;;;4.80;;
73575;SDS011;61859;49.204;8.140;2023-05-23T08:27:13;5.20;;;4.70;;
73575;SDS011;61859;49.204;8.140;2023-05-23T08:29:38;5.33;;;4.27;;
73575;SDS011;61859;49.204;8.140;2023-05-23T08:32:05;3.87;;;3.57;;
73575;SDS011;61859;49.204;8.140;2023-05-23T08:34:30;4.47;;;4.07;;
73575;SDS011;61859;49.204;8.140;2023-05-23T08:36:56;3.93;;;3.50;;
73575;SDS011;61859;49.204;8.140;2023-05-23T08:39:22;4.80;;;3.47;;
73575;SDS011;61859;49.204;8.140;2023-05-23T08:41:48;4.20;;;3.20;;
73575;SDS011;61859;49.204;8.140;2023-05-23T08:44:13;4.73;;;3.37;;
73575;SDS011;61859;49.204;8.140;2023-05-23T08:46:46;3.73;;;3.40;;
73575;SDS011;61859;49.204;8.140;2023-05-23T08:49:13;4.40;;;3.70;;
73575;SDS011;61859;49.204;8.140;2023-05-23T08:51:42;3.77;;;3.30;;
73575;SDS011;61859;49.204;8.140;2023-05-23T08:54:08;3.97;;;3.57;;
73575;SDS011;61859;49.204;8.140;2023-05-23T08:56:37;3.73;;;3.40;;
73575;SDS011;61859;49.204;8.140;2023-05-23T08:59:03;3.33;;;3.03;;
73575;SDS011;61859;49.204;8.140;2023-05-23T09:01:30;3.07;;;2.83;;
73575;SDS011;61859;49.204;8.140;2023-05-23T09:03:57;3.57;;;3.03;;
73575;SDS011;61859;49.204;8.140;2023-05-23T09:06:28;3.00;;;2.80;;
73575;SDS011;61859;49.204;8.140;2023-05-23T09:08:54;3.07;;;2.77;;
73575;SDS011;61859;49.204;8.140;2023-05-23T09:11:21;3.93;;;3.30;;
73575;SDS011;61859;49.204;8.140;2023-05-23T09:13:46;3.10;;;2.80;;
73575;SDS011;61859;49.204;8.140;2023-05-23T09:16:14;3.20;;;2.90;;
73575;SDS011;61859;49.204;8.140;2023-05-23T09:18:42;3.20;;;2.90;;
73575;SDS011;61859;49.204;8.140;2023-05-23T09:21:09;3.70;;;3.00;;
73575;SDS011;61859;49.204;8.140;2023-05-23T09:23:36;4.07;;;2.90;;
73575;SDS011;61859;49.204;8.140;2023-05-23T09:26:06;3.20;;;2.73;;
73575;SDS011;61859;49.204;8.140;2023-05-23T09:28:33;3.43;;;3.13;;
73575;SDS011;61859;49.204;8.140;2023-05-23T09:31:03;3.60;;;2.60;;
73575;SDS011;61859;49.204;8.140;2023-05-23T09:36:12;3.10;;;2.80;;
73575;SDS011;61859;49.204;8.140;2023-05-23T09:38:38;3.73;;;3.10;;
73575;SDS011;61859;49.204;8.140;2023-05-23T09:41:05;2.58;;;2.33;;
73575;SDS011;61859;49.204;8.140;2023-05-23T09:43:31;2.58;;;2.38;;
73575;SDS011;61859;49.204;8.140;2023-05-23T09:46:06;3.55;;;3.25;;
73575;SDS011;61859;49.204;8.140;2023-05-23T09:48:32;4.25;;;2.67;;
73575;SDS011;61859;49.204;8.140;2023-05-23T09:50:58;2.50;;;2.30;;
73575;SDS011;61859;49.204;8.140;2023-05-23T09:53:27;2.35;;;2.15;;
73575;SDS011;61859;49.204;8.140;2023-05-23T09:55:53;2.47;;;2.28;;
73575;SDS011;61859;49.204;8.140;2023-05-23T09:58:20;2.42;;;2.28;;
73575;SDS011;61859;49.204;8.140;2023-05-23T10:00:50;2.88;;;2.60;;
73575;SDS011;61859;49.204;8.140;2023-05-23T10:03:21;2.50;;;2.30;;
73575;SDS011;61859;49.204;8.140;2023-05-23T10:05:52;2.60;;;2.40;;
73575;SDS011;61859;49.204;8.140;2023-05-23T10:08:31;2.70;;;2.50;;
73575;SDS011;61859;49.204;8.140;2023-05-23T10:13:45;3.63;;;2.78;;
73575;SDS011;61859;49.204;8.140;2023-05-23T10:16:23;2.53;;;2.33;;
73575;SDS011;61859;49.204;8.140;2023-05-23T10:19:02;3.33;;;2.20;;
73575;SDS011;61859;49.204;8.140;2023-05-23T10:21:49;1.95;;;1.85;;
73575;SDS011;61859;49.204;8.140;2023-05-23T10:24:19;2.05;;;1.85;;
73575;SDS011;61859;49.204;8.140;2023-05-23T10:26:46;2.58;;;1.80;;
73575;SDS011;61859;49.204;8.140;2023-05-23T10:29:12;1.70;;;1.60;;
73575;SDS011;61859;49.204;8.140;2023-05-23T10:31:38;1.80;;;1.58;;
73575;SDS011;61859;49.204;8.140;2023-05-23T10:34:09;1.77;;;1.67;;
73575;SDS011;61859;49.204;8.140;2023-05-23T10:37:05;2.00;;;1.65;;
73575;SDS011;61859;49.204;8.140;2023-05-23T10:42:16;1.70;;;1.60;;
73575;SDS011;61859;49.204;8.140;2023-05-23T10:44:51;1.67;;;1.58;;
73575;SDS011;61859;49.204;8.140;2023-05-23T10:47:24;1.60;;;1.50;;
73575;SDS011;61859;49.204;8.140;2023-05-23T10:49:51;1.80;;;1.70;;
73575;SDS011;61859;49.204;8.140;2023-05-23T10:52:18;2.00;;;1.90;;
73575;SDS011;61859;49.204;8.140;2023-05-23T10:54:45;1.75;;;1.65;;
73575;SDS011;61859;49.204;8.140;2023-05-23T10:57:16;2.17;;;1.98;;
73575;SDS011;61859;49.204;8.140;2023-05-23T10:59:45;1.80;;;1.70;;
73575;SDS011;61859;49.204;8.140;2023-05-23T11:02:12;1.57;;;1.47;;
73575;SDS011;61859;49.204;8.140;2023-05-23T11:04:40;2.00;;;1.50;;
73575;SDS011;61859;49.204;8.140;2023-05-23T11:07:13;1.47;;;1.37;;
73575;SDS011;61859;49.204;8.140;2023-05-23T11:10:02;1.53;;;1.43;;
73575;SDS011;61859;49.204;8.140;2023-05-23T11:12:41;2.53;;;1.40;;
73575;SDS011;61859;49.204;8.140;2023-05-23T11:17:48;1.50;;;1.40;;
73575;SDS011;61859;49.204;8.140;2023-05-23T11:20:19;1.70;;;1.60;;
73575;SDS011;61859;49.204;8.140;2023-05-23T11:22:54;1.83;;;1.73;;
73575;SDS011;61859;49.204;8.140;2023-05-23T11:28:16;1.80;;;1.70;;
73575;SDS011;61859;49.204;8.140;2023-05-23T11:30:42;2.03;;;1.83;;
73575;SDS011;61859;49.204;8.140;2023-05-23T11:33:11;2.00;;;1.88;;
73575;SDS011;61859;49.204;8.140;2023-05-23T11:35:41;1.70;;;1.60;;
73575;SDS011;61859;49.204;8.140;2023-05-23T11:38:10;3.58;;;1.77;;
73575;SDS011;61859;49.204;8.140;2023-05-23T11:40:38;1.70;;;1.60;;
73575;SDS011;61859;49.204;8.140;2023-05-23T11:43:06;1.77;;;1.67;;
73575;SDS011;61859;49.204;8.140;2023-05-23T11:45:33;2.00;;;1.80;;
73575;SDS011;61859;49.204;8.140;2023-05-23T11:48:04;1.70;;;1.60;;
73575;SDS011;61859;49.204;8.140;2023-05-23T11:53:15;2.00;;;1.90;;
73575;SDS011;61859;49.204;8.140;2023-05-23T11:55:51;1.98;;;1.77;;
73575;SDS011;61859;49.204;8.140;2023-05-23T11:58:25;2.00;;;1.70;;
73575;SDS011;61859;49.204;8.140;2023-05-23T12:01:02;1.73;;;1.63;;
73575;SDS011;61859;49.204;8.140;2023-05-23T12:03:30;2.47;;;2.00;;
73575;SDS011;61859;49.204;8.140;2023-05-23T12:05:56;2.40;;;2.20;;
73575;SDS011;61859;49.204;8.140;2023-05-23T12:08:22;2.20;;;2.10;;
73575;SDS011;61859;49.204;8.140;2023-05-23T12:10:52;2.35;;;2.15;;
73575;SDS011;61859;49.204;8.140;2023-05-23T12:13:25;2.10;;;1.90;;
73575;SDS011;61859;49.204;8.140;2023-05-23T12:15:53;2.13;;;2.03;;
73575;SDS011;61859;49.204;8.140;2023-05-23T12:18:31;2.00;;;1.90;;
73575;SDS011;61859;49.204;8.140;2023-05-23T12:21:00;2.20;;;2.08;;
73575;SDS011;61859;49.204;8.140;2023-05-23T12:23:27;2.40;;;2.20;;
73575;SDS011;61859;49.204;8.140;2023-05-23T12:25:54;2.20;;;2.05;;
73575;SDS011;61859;49.204;8.140;2023-05-23T12:28:20;3.08;;;2.40;;
73575;SDS011;61859;49.204;8.140;2023-05-23T12:30:58;2.85;;;2.53;;
73575;SDS011;61859;49.204;8.140;2023-05-23T12:33:23;2.72;;;2.53;;
73575;SDS011;61859;49.204;8.140;2023-05-23T12:35:49;2.45;;;2.25;;
73575;SDS011;61859;49.204;8.140;2023-05-23T12:38:15;2.42;;;2.22;;
73575;SDS011;61859;49.204;8.140;2023-05-23T12:40:41;2.38;;;2.17;;
73575;SDS011;61859;49.204;8.140;2023-05-23T12:43:08;1.92;;;1.80;;
73575;SDS011;61859;49.204;8.140;2023-05-23T12:45:34;1.90;;;1.80;;
73575;SDS011;61859;49.204;8.140;2023-05-23T12:48:03;2.40;;;2.20;;
73575;SDS011;61859;49.204;8.140;2023-05-23T12:50:29;2.20;;;2.00;;
73575;SDS011;61859;49.204;8.140;2023-05-23T12:52:55;2.33;;;2.13;;
73575;SDS011;61859;49.204;8.140;2023-05-23T12:55:21;2.60;;;2.40;;
73575;SDS011;61859;49.204;8.140;2023-05-23T12:57:47;2.30;;;2.10;;
73575;SDS011;61859;49.204;8.140;2023-05-23T13:00:12;2.20;;;2.10;;
73575;SDS011;61859;49.204;8.140;2023-05-23T13:02:38;2.20;;;2.10;;
73575;SDS011;61859;49.204;8.140;2023-05-23T13:05:04;2.65;;;2.45;;
73575;SDS011;61859;49.204;8.140;2023-05-23T13:07:30;2.47;;;2.15;;
73575;SDS011;61859;49.204;8.140;2023-05-23T13:09:56;2.92;;;2.63;;
73575;SDS011;61859;49.204;8.140;2023-05-23T13:12:21;2.30;;;2.20;;
73575;SDS011;61859;49.204;8.140;2023-05-23T13:14:47;2.67;;;2.42;;
73575;SDS011;61859;49.204;8.140;2023-05-23T13:17:13;2.00;;;1.90;;
73575;SDS011;61859;49.204;8.140;2023-05-23T13:19:39;3.17;;;2.25;;
73575;SDS011;61859;49.204;8.140;2023-05-23T13:22:05;2.95;;;2.72;;
73575;SDS011;61859;49.204;8.140;2023-05-23T13:24:34;3.00;;;2.70;;
73575;SDS011;61859;49.204;8.140;2023-05-23T13:27:01;3.95;;;2.92;;
73575;SDS011;61859;49.204;8.140;2023-05-23T13:29:27;2.80;;;2.60;;
73575;SDS011;61859;49.204;8.140;2023-05-23T13:31:52;2.60;;;2.40;;
73575;SDS011;61859;49.204;8.140;2023-05-23T13:34:18;2.70;;;2.45;;
73575;SDS011;61859;49.204;8.140;2023-05-23T13:36:44;2.55;;;2.35;;
73575;SDS011;61859;49.204;8.140;2023-05-23T13:39:09;2.50;;;2.30;;
73575;SDS011;61859;49.204;8.140;2023-05-23T13:41:35;2.75;;;2.30;;
73575;SDS011;61859;49.204;8.140;2023-05-23T13:44:00;2.63;;;2.42;;
73575;SDS011;61859;49.204;8.140;2023-05-23T13:46:26;2.42;;;2.25;;
73575;SDS011;61859;49.204;8.140;2023-05-23T13:48:51;3.17;;;2.33;;
73575;SDS011;61859;49.204;8.140;2023-05-23T13:51:17;2.63;;;2.42;;
73575;SDS011;61859;49.204;8.140;2023-05-23T13:53:42;3.88;;;2.28;;
73575;SDS011;61859;49.204;8.140;2023-05-23T13:56:08;2.63;;;2.42;;
73575;SDS011;61859;49.204;8.140;2023-05-23T13:58:34;2.90;;;2.60;;
73575;SDS011;61859;49.204;8.140;2023-05-23T14:01:00;3.00;;;2.70;;
73575;SDS011;61859;49.204;8.140;2023-05-23T14:03:26;2.92;;;2.63;;
73575;SDS011;61859;49.204;8.140;2023-05-23T14:05:52;3.15;;;2.67;;
73575;SDS011;61859;49.204;8.140;2023-05-23T14:08:17;3.10;;;2.80;;
73575;SDS011;61859;49.204;8.140;2023-05-23T14:10:43;2.67;;;2.42;;
73575;SDS011;61859;49.204;8.140;2023-05-23T14:13:09;2.60;;;2.40;;
73575;SDS011;61859;49.204;8.140;2023-05-23T14:15:35;2.63;;;2.42;;
73575;SDS011;61859;49.204;8.140;2023-05-23T14:18:02;2.70;;;2.50;;
73575;SDS011;61859;49.204;8.140;2023-05-23T14:20:27;4.45;;;2.50;;
73575;SDS011;61859;49.204;8.140;2023-05-23T14:22:53;3.50;;;2.30;;
73575;SDS011;61859;49.204;8.140;2023-05-23T14:25:19;3.08;;;2.78;;
73575;SDS011;61859;49.204;8.140;2023-05-23T14:27:45;2.90;;;2.70;;
73575;SDS011;61859;49.204;8.140;2023-05-23T14:30:11;2.92;;;2.72;;
73575;SDS011;61859;49.204;8.140;2023-05-23T14:32:36;2.60;;;2.40;;
73575;SDS011;61859;49.204;8.140;2023-05-23T14:35:06;3.08;;;2.88;;
73575;SDS011;61859;49.204;8.140;2023-05-23T14:37:34;3.28;;;2.85;;
73575;SDS011;61859;49.204;8.140;2023-05-23T14:39:59;2.75;;;2.55;;
73575;SDS011;61859;49.204;8.140;2023-05-23T14:42:25;3.00;;;2.80;;
73575;SDS011;61859;49.204;8.140;2023-05-23T14:44:52;3.03;;;2.80;;
73575;SDS011;61859;49.204;8.140;2023-05-23T14:47:18;3.22;;;2.92;;
73575;SDS011;61859;49.204;8.140;2023-05-23T14:49:43;3.40;;;3.10;;
73575;SDS011;61859;49.204;8.140;2023-05-23T14:52:09;3.15;;;2.95;;
73575;SDS011;61859;49.204;8.140;2023-05-23T14:54:36;5.20;;;3.22;;
73575;SDS011;61859;49.204;8.140;2023-05-23T14:57:04;3.67;;;3.38;;